Terminal Aerodrome Forecast
Issued by NWS

Home | Current Version | Previous Version | Text Only | Print | Product List | Glossary On
Versions: 1 2 3 4 5 6 7 8 9 10 11 12 13 14 15 16
000
FTUS46 KPDT 301124
TAFDLS
TAF
KDLS 301124Z 3012/3112 30008KT P6SM -SHRA OVC060
     FM302000 31012G20KT P6SM VCSH SCT060 BKN080
     FM302200 31016G25KT P6SM SCT080
     FM310200 30010G15KT P6SM SCT100 SCT200
     FM310500 29007KT P6SM FEW070 SCT200=

USA.gov is the U.S. government's official web portal to all federal, state and local government web resources and services.